sensor_id;sensor_type;location;lat;lon;timestamp;P1;durP1;ratioP1;P2;durP2;ratioP2
50906;SDS011;36882;27.680;85.304;2023-11-21T00:00:46;36.27;;;22.23;;
50906;SDS011;36882;27.680;85.304;2023-11-21T00:03:17;37.65;;;23.85;;
50906;SDS011;36882;27.680;85.304;2023-11-21T00:05:48;38.17;;;23.33;;
50906;SDS011;36882;27.680;85.304;2023-11-21T00:08:18;38.30;;;26.42;;
50906;SDS011;36882;27.680;85.304;2023-11-21T00:10:48;43.85;;;25.30;;
50906;SDS011;36882;27.680;85.304;2023-11-21T00:13:20;41.25;;;26.33;;
50906;SDS011;36882;27.680;85.304;2023-11-21T00:15:50;33.60;;;23.75;;
50906;SDS011;36882;27.680;85.304;2023-11-21T00:18:20;39.95;;;25.23;;
50906;SDS011;36882;27.680;85.304;2023-11-21T00:23:20;45.13;;;26.90;;
50906;SDS011;36882;27.680;85.304;2023-11-21T00:25:51;36.40;;;26.35;;
50906;SDS011;36882;27.680;85.304;2023-11-21T00:28:21;43.28;;;27.15;;
50906;SDS011;36882;27.680;85.304;2023-11-21T00:33:22;43.30;;;28.90;;
50906;SDS011;36882;27.680;85.304;2023-11-21T00:35:54;48.83;;;27.52;;
50906;SDS011;36882;27.680;85.304;2023-11-21T00:38:25;42.40;;;28.52;;
50906;SDS011;36882;27.680;85.304;2023-11-21T00:40:55;45.20;;;27.85;;
50906;SDS011;36882;27.680;85.304;2023-11-21T00:43:26;50.38;;;29.42;;
50906;SDS011;36882;27.680;85.304;2023-11-21T00:45:57;45.42;;;29.30;;
50906;SDS011;36882;27.680;85.304;2023-11-21T00:48:28;45.67;;;27.63;;
50906;SDS011;36882;27.680;85.304;2023-11-21T00:50:58;45.80;;;31.30;;
50906;SDS011;36882;27.680;85.304;2023-11-21T00:55:58;58.42;;;32.53;;
50906;SDS011;36882;27.680;85.304;2023-11-21T00:58:29;45.13;;;30.38;;
50906;SDS011;36882;27.680;85.304;2023-11-21T01:00:59;48.92;;;30.77;;
50906;SDS011;36882;27.680;85.304;2023-11-21T01:03:31;47.83;;;32.08;;
50906;SDS011;36882;27.680;85.304;2023-11-21T01:06:01;51.28;;;33.58;;
50906;SDS011;36882;27.680;85.304;2023-11-21T01:08:33;54.75;;;36.10;;
50906;SDS011;36882;27.680;85.304;2023-11-21T01:11:04;65.63;;;40.78;;
50906;SDS011;36882;27.680;85.304;2023-11-21T01:13:37;79.60;;;51.97;;
50906;SDS011;36882;27.680;85.304;2023-11-21T01:16:09;101.47;;;61.75;;
50906;SDS011;36882;27.680;85.304;2023-11-21T01:18:39;82.68;;;58.47;;
50906;SDS011;36882;27.680;85.304;2023-11-21T01:21:09;80.40;;;55.63;;
50906;SDS011;36882;27.680;85.304;2023-11-21T01:23:40;92.07;;;59.85;;
50906;SDS011;36882;27.680;85.304;2023-11-21T01:26:11;98.80;;;61.50;;
50906;SDS011;36882;27.680;85.304;2023-11-21T01:28:41;98.43;;;58.80;;
50906;SDS011;36882;27.680;85.304;2023-11-21T01:31:11;93.43;;;57.55;;
50906;SDS011;36882;27.680;85.304;2023-11-21T01:33:42;82.75;;;56.08;;
50906;SDS011;36882;27.680;85.304;2023-11-21T01:36:12;75.07;;;49.58;;
50906;SDS011;36882;27.680;85.304;2023-11-21T01:38:43;67.40;;;44.58;;
50906;SDS011;36882;27.680;85.304;2023-11-21T01:41:14;57.22;;;40.83;;
50906;SDS011;36882;27.680;85.304;2023-11-21T01:43:44;61.78;;;41.00;;
50906;SDS011;36882;27.680;85.304;2023-11-21T01:46:15;66.68;;;44.13;;
50906;SDS011;36882;27.680;85.304;2023-11-21T01:48:46;68.78;;;40.90;;
50906;SDS011;36882;27.680;85.304;2023-11-21T01:51:18;68.32;;;46.78;;
50906;SDS011;36882;27.680;85.304;2023-11-21T01:56:18;72.05;;;49.42;;
50906;SDS011;36882;27.680;85.304;2023-11-21T01:58:49;74.55;;;46.95;;
50906;SDS011;36882;27.680;85.304;2023-11-21T02:01:20;72.78;;;43.20;;
50906;SDS011;36882;27.680;85.304;2023-11-21T02:03:50;72.30;;;41.00;;
50906;SDS011;36882;27.680;85.304;2023-11-21T02:06:20;63.10;;;43.17;;
50906;SDS011;36882;27.680;85.304;2023-11-21T02:08:51;61.60;;;39.92;;
50906;SDS011;36882;27.680;85.304;2023-11-21T02:13:53;62.38;;;40.67;;
50906;SDS011;36882;27.680;85.304;2023-11-21T02:16:23;72.68;;;44.78;;
50906;SDS011;36882;27.680;85.304;2023-11-21T02:21:24;65.30;;;41.08;;
50906;SDS011;36882;27.680;85.304;2023-11-21T02:23:56;64.28;;;41.85;;
50906;SDS011;36882;27.680;85.304;2023-11-21T02:26:27;62.47;;;38.55;;
50906;SDS011;36882;27.680;85.304;2023-11-21T02:28:57;63.50;;;39.67;;
50906;SDS011;36882;27.680;85.304;2023-11-21T02:31:29;78.82;;;45.92;;
50906;SDS011;36882;27.680;85.304;2023-11-21T02:34:01;79.50;;;41.53;;
50906;SDS011;36882;27.680;85.304;2023-11-21T02:36:33;77.95;;;46.70;;
50906;SDS011;36882;27.680;85.304;2023-11-21T02:39:03;69.07;;;44.67;;
50906;SDS011;36882;27.680;85.304;2023-11-21T02:41:39;80.95;;;47.00;;
50906;SDS011;36882;27.680;85.304;2023-11-21T02:44:09;74.05;;;44.17;;
50906;SDS011;36882;27.680;85.304;2023-11-21T02:46:40;77.45;;;44.13;;
50906;SDS011;36882;27.680;85.304;2023-11-21T02:49:10;74.15;;;45.92;;
50906;SDS011;36882;27.680;85.304;2023-11-21T02:51:41;72.80;;;48.45;;
50906;SDS011;36882;27.680;85.304;2023-11-21T02:54:12;69.22;;;47.83;;
50906;SDS011;36882;27.680;85.304;2023-11-21T02:56:43;86.05;;;50.58;;
50906;SDS011;36882;27.680;85.304;2023-11-21T02:59:14;62.80;;;48.83;;
50906;SDS011;36882;27.680;85.304;2023-11-21T03:01:45;81.97;;;49.38;;
50906;SDS011;36882;27.680;85.304;2023-11-21T03:04:15;78.85;;;52.58;;
50906;SDS011;36882;27.680;85.304;2023-11-21T03:06:46;79.80;;;51.97;;
50906;SDS011;36882;27.680;85.304;2023-11-21T03:09:19;84.05;;;54.65;;
50906;SDS011;36882;27.680;85.304;2023-11-21T03:11:49;82.60;;;53.78;;
50906;SDS011;36882;27.680;85.304;2023-11-21T03:14:20;79.88;;;48.08;;
50906;SDS011;36882;27.680;85.304;2023-11-21T03:16:50;73.97;;;48.47;;
50906;SDS011;36882;27.680;85.304;2023-11-21T03:21:50;78.60;;;53.15;;
50906;SDS011;36882;27.680;85.304;2023-11-21T03:24:21;71.65;;;51.92;;
50906;SDS011;36882;27.680;85.304;2023-11-21T03:29:22;86.80;;;56.25;;
50906;SDS011;36882;27.680;85.304;2023-11-21T03:31:52;74.28;;;56.33;;
50906;SDS011;36882;27.680;85.304;2023-11-21T03:34:26;80.60;;;54.47;;
50906;SDS011;36882;27.680;85.304;2023-11-21T03:36:58;85.38;;;57.08;;
50906;SDS011;36882;27.680;85.304;2023-11-21T03:41:58;92.03;;;57.22;;
50906;SDS011;36882;27.680;85.304;2023-11-21T03:46:58;91.37;;;58.00;;
50906;SDS011;36882;27.680;85.304;2023-11-21T03:49:29;90.57;;;62.90;;
50906;SDS011;36882;27.680;85.304;2023-11-21T03:51:59;96.85;;;76.45;;
50906;SDS011;36882;27.680;85.304;2023-11-21T03:54:31;99.57;;;73.78;;
50906;SDS011;36882;27.680;85.304;2023-11-21T03:59:31;85.13;;;61.25;;
50906;SDS011;36882;27.680;85.304;2023-11-21T04:02:01;94.63;;;64.25;;
50906;SDS011;36882;27.680;85.304;2023-11-21T04:04:32;82.45;;;63.53;;
50906;SDS011;36882;27.680;85.304;2023-11-21T04:07:03;92.15;;;60.45;;
50906;SDS011;36882;27.680;85.304;2023-11-21T04:09:34;84.97;;;58.97;;
50906;SDS011;36882;27.680;85.304;2023-11-21T04:12:05;85.85;;;59.63;;
50906;SDS011;36882;27.680;85.304;2023-11-21T04:14:38;94.90;;;62.70;;
50906;SDS011;36882;27.680;85.304;2023-11-21T04:17:09;84.30;;;63.30;;
50906;SDS011;36882;27.680;85.304;2023-11-21T04:19:40;95.22;;;61.33;;
50906;SDS011;36882;27.680;85.304;2023-11-21T04:22:10;89.72;;;61.72;;
50906;SDS011;36882;27.680;85.304;2023-11-21T04:24:41;88.00;;;60.47;;
50906;SDS011;36882;27.680;85.304;2023-11-21T04:29:42;94.93;;;60.72;;
50906;SDS011;36882;27.680;85.304;2023-11-21T04:32:12;92.80;;;63.28;;
50906;SDS011;36882;27.680;85.304;2023-11-21T04:34:45;87.20;;;61.30;;
50906;SDS011;36882;27.680;85.304;2023-11-21T04:37:15;80.38;;;58.72;;
50906;SDS011;36882;27.680;85.304;2023-11-21T04:39:46;84.95;;;56.33;;
50906;SDS011;36882;27.680;85.304;2023-11-21T04:44:46;77.50;;;52.17;;
50906;SDS011;36882;27.680;85.304;2023-11-21T04:47:18;71.60;;;51.25;;
50906;SDS011;36882;27.680;85.304;2023-11-21T04:49:49;84.20;;;56.00;;
50906;SDS011;36882;27.680;85.304;2023-11-21T04:54:49;86.72;;;56.42;;
50906;SDS011;36882;27.680;85.304;2023-11-21T04:57:20;81.45;;;55.25;;
50906;SDS011;36882;27.680;85.304;2023-11-21T04:59:50;70.68;;;50.30;;
50906;SDS011;36882;27.680;85.304;2023-11-21T05:02:21;74.35;;;51.83;;
50906;SDS011;36882;27.680;85.304;2023-11-21T05:07:34;75.47;;;49.65;;
50906;SDS011;36882;27.680;85.304;2023-11-21T05:10:05;69.80;;;47.15;;
50906;SDS011;36882;27.680;85.304;2023-11-21T05:12:45;66.03;;;45.75;;
50906;SDS011;36882;27.680;85.304;2023-11-21T05:17:46;70.57;;;50.30;;
50906;SDS011;36882;27.680;85.304;2023-11-21T05:20:19;71.47;;;49.22;;
50906;SDS011;36882;27.680;85.304;2023-11-21T05:22:50;81.07;;;52.10;;
50906;SDS011;36882;27.680;85.304;2023-11-21T05:25:24;74.40;;;51.80;;
50906;SDS011;36882;27.680;85.304;2023-11-21T05:27:55;71.30;;;49.80;;
50906;SDS011;36882;27.680;85.304;2023-11-21T05:30:28;66.43;;;46.17;;
50906;SDS011;36882;27.680;85.304;2023-11-21T05:32:58;67.78;;;49.58;;
50906;SDS011;36882;27.680;85.304;2023-11-21T05:35:29;79.25;;;52.70;;
50906;SDS011;36882;27.680;85.304;2023-11-21T05:37:59;73.60;;;52.15;;
50906;SDS011;36882;27.680;85.304;2023-11-21T05:40:30;68.65;;;47.60;;
50906;SDS011;36882;27.680;85.304;2023-11-21T05:43:04;65.97;;;43.47;;
50906;SDS011;36882;27.680;85.304;2023-11-21T05:45:35;64.35;;;40.47;;
50906;SDS011;36882;27.680;85.304;2023-11-21T05:48:06;68.40;;;41.78;;
50906;SDS011;36882;27.680;85.304;2023-11-21T05:50:40;51.25;;;33.20;;
50906;SDS011;36882;27.680;85.304;2023-11-21T05:53:10;53.90;;;35.42;;
50906;SDS011;36882;27.680;85.304;2023-11-21T05:55:40;45.90;;;31.73;;
50906;SDS011;36882;27.680;85.304;2023-11-21T05:58:11;48.55;;;31.52;;
50906;SDS011;36882;27.680;85.304;2023-11-21T06:00:42;49.40;;;30.85;;
50906;SDS011;36882;27.680;85.304;2023-11-21T06:03:13;43.25;;;28.48;;
50906;SDS011;36882;27.680;85.304;2023-11-21T06:05:43;41.22;;;28.02;;
50906;SDS011;36882;27.680;85.304;2023-11-21T06:10:45;44.95;;;31.20;;
50906;SDS011;36882;27.680;85.304;2023-11-21T06:13:18;55.35;;;31.92;;
50906;SDS011;36882;27.680;85.304;2023-11-21T06:15:53;60.10;;;34.88;;
50906;SDS011;36882;27.680;85.304;2023-11-21T06:18:23;52.08;;;35.95;;
50906;SDS011;36882;27.680;85.304;2023-11-21T06:20:54;46.35;;;29.98;;
50906;SDS011;36882;27.680;85.304;2023-11-21T06:23:24;42.55;;;27.08;;
50906;SDS011;36882;27.680;85.304;2023-11-21T06:25:55;37.75;;;23.02;;
50906;SDS011;36882;27.680;85.304;2023-11-21T06:28:26;37.13;;;19.88;;
50906;SDS011;36882;27.680;85.304;2023-11-21T06:30:56;42.22;;;21.85;;
50906;SDS011;36882;27.680;85.304;2023-11-21T06:33:27;45.45;;;27.50;;
50906;SDS011;36882;27.680;85.304;2023-11-21T06:35:58;52.05;;;35.63;;
50906;SDS011;36882;27.680;85.304;2023-11-21T06:38:31;45.42;;;32.55;;
50906;SDS011;36882;27.680;85.304;2023-11-21T06:41:05;28.05;;;20.60;;
50906;SDS011;36882;27.680;85.304;2023-11-21T06:43:36;35.80;;;22.15;;
50906;SDS011;36882;27.680;85.304;2023-11-21T06:46:07;28.85;;;20.45;;
50906;SDS011;36882;27.680;85.304;2023-11-21T06:48:48;31.90;;;19.27;;
50906;SDS011;36882;27.680;85.304;2023-11-21T06:51:19;26.65;;;17.25;;
50906;SDS011;36882;27.680;85.304;2023-11-21T06:53:50;21.73;;;14.65;;
50906;SDS011;36882;27.680;85.304;2023-11-21T06:56:20;22.38;;;13.20;;
50906;SDS011;36882;27.680;85.304;2023-11-21T06:58:50;24.00;;;13.20;;
50906;SDS011;36882;27.680;85.304;2023-11-21T07:01:28;19.13;;;10.98;;
50906;SDS011;36882;27.680;85.304;2023-11-21T07:03:58;15.70;;;10.27;;
50906;SDS011;36882;27.680;85.304;2023-11-21T07:06:29;23.42;;;11.10;;
50906;SDS011;36882;27.680;85.304;2023-11-21T07:08:59;22.98;;;11.93;;
50906;SDS011;36882;27.680;85.304;2023-11-21T07:11:30;17.17;;;12.30;;
50906;SDS011;36882;27.680;85.304;2023-11-21T07:14:01;17.13;;;9.38;;
50906;SDS011;36882;27.680;85.304;2023-11-21T07:16:36;18.88;;;11.27;;
50906;SDS011;36882;27.680;85.304;2023-11-21T07:19:07;18.17;;;10.25;;
50906;SDS011;36882;27.680;85.304;2023-11-21T07:21:37;20.50;;;11.45;;
50906;SDS011;36882;27.680;85.304;2023-11-21T07:24:08;23.77;;;13.13;;
50906;SDS011;36882;27.680;85.304;2023-11-21T07:26:40;31.17;;;13.75;;
50906;SDS011;36882;27.680;85.304;2023-11-21T07:29:17;20.13;;;11.48;;
50906;SDS011;36882;27.680;85.304;2023-11-21T07:31:48;24.00;;;12.85;;
50906;SDS011;36882;27.680;85.304;2023-11-21T07:34:19;33.78;;;15.20;;
50906;SDS011;36882;27.680;85.304;2023-11-21T07:36:51;28.42;;;15.32;;
50906;SDS011;36882;27.680;85.304;2023-11-21T07:39:21;26.85;;;17.33;;
50906;SDS011;36882;27.680;85.304;2023-11-21T07:41:52;27.52;;;15.80;;
50906;SDS011;36882;27.680;85.304;2023-11-21T07:44:22;26.42;;;16.40;;
50906;SDS011;36882;27.680;85.304;2023-11-21T07:46:53;25.20;;;17.02;;
50906;SDS011;36882;27.680;85.304;2023-11-21T07:49:27;23.90;;;16.45;;
50906;SDS011;36882;27.680;85.304;2023-11-21T07:51:58;19.10;;;13.88;;
50906;SDS011;36882;27.680;85.304;2023-11-21T07:54:29;20.10;;;12.48;;
50906;SDS011;36882;27.680;85.304;2023-11-21T07:56:59;23.08;;;13.18;;
50906;SDS011;36882;27.680;85.304;2023-11-21T07:59:29;16.63;;;12.10;;
50906;SDS011;36882;27.680;85.304;2023-11-21T08:02:00;21.73;;;13.40;;
50906;SDS011;36882;27.680;85.304;2023-11-21T08:04:30;15.15;;;12.02;;
50906;SDS011;36882;27.680;85.304;2023-11-21T08:07:01;20.02;;;12.18;;
50906;SDS011;36882;27.680;85.304;2023-11-21T08:09:32;21.48;;;11.38;;
50906;SDS011;36882;27.680;85.304;2023-11-21T08:12:03;20.13;;;11.48;;
50906;SDS011;36882;27.680;85.304;2023-11-21T08:14:34;22.70;;;12.88;;
50906;SDS011;36882;27.680;85.304;2023-11-21T08:17:07;29.90;;;12.88;;
50906;SDS011;36882;27.680;85.304;2023-11-21T08:19:40;17.15;;;11.65;;
50906;SDS011;36882;27.680;85.304;2023-11-21T08:22:11;18.00;;;11.50;;
50906;SDS011;36882;27.680;85.304;2023-11-21T08:24:41;20.38;;;11.70;;
50906;SDS011;36882;27.680;85.304;2023-11-21T08:27:12;19.83;;;11.00;;
50906;SDS011;36882;27.680;85.304;2023-11-21T08:29:46;27.08;;;11.40;;
50906;SDS011;36882;27.680;85.304;2023-11-21T08:32:17;20.08;;;11.43;;
50906;SDS011;36882;27.680;85.304;2023-11-21T08:34:52;21.67;;;11.48;;
50906;SDS011;36882;27.680;85.304;2023-11-21T08:37:24;24.20;;;11.63;;
50906;SDS011;36882;27.680;85.304;2023-11-21T08:39:59;27.58;;;11.57;;
50906;SDS011;36882;27.680;85.304;2023-11-21T08:42:29;18.80;;;10.43;;
50906;SDS011;36882;27.680;85.304;2023-11-21T08:45:00;18.98;;;11.32;;
50906;SDS011;36882;27.680;85.304;2023-11-21T08:47:31;19.95;;;12.00;;
50906;SDS011;36882;27.680;85.304;2023-11-21T08:50:02;27.67;;;13.82;;
50906;SDS011;36882;27.680;85.304;2023-11-21T08:52:32;24.67;;;12.02;;
50906;SDS011;36882;27.680;85.304;2023-11-21T08:55:04;23.85;;;12.68;;
50906;SDS011;36882;27.680;85.304;2023-11-21T08:57:38;19.15;;;11.38;;
50906;SDS011;36882;27.680;85.304;2023-11-21T09:00:12;32.85;;;14.15;;
50906;SDS011;36882;27.680;85.304;2023-11-21T09:02:45;19.02;;;11.05;;
50906;SDS011;36882;27.680;85.304;2023-11-21T09:05:16;22.95;;;13.32;;
50906;SDS011;36882;27.680;85.304;2023-11-21T09:07:48;19.50;;;11.77;;
50906;SDS011;36882;27.680;85.304;2023-11-21T09:10:18;24.02;;;13.32;;
50906;SDS011;36882;27.680;85.304;2023-11-21T09:12:49;23.52;;;12.57;;
50906;SDS011;36882;27.680;85.304;2023-11-21T09:15:21;28.13;;;12.48;;
50906;SDS011;36882;27.680;85.304;2023-11-21T09:17:52;28.38;;;13.23;;
50906;SDS011;36882;27.680;85.304;2023-11-21T09:20:25;19.02;;;11.68;;
50906;SDS011;36882;27.680;85.304;2023-11-21T09:22:56;20.30;;;11.02;;
50906;SDS011;36882;27.680;85.304;2023-11-21T09:25:26;32.55;;;13.38;;
50906;SDS011;36882;27.680;85.304;2023-11-21T09:27:58;20.33;;;11.93;;
50906;SDS011;36882;27.680;85.304;2023-11-21T09:30:28;18.35;;;12.82;;
50906;SDS011;36882;27.680;85.304;2023-11-21T09:33:00;18.75;;;11.18;;
50906;SDS011;36882;27.680;85.304;2023-11-21T09:35:31;16.10;;;10.32;;
50906;SDS011;36882;27.680;85.304;2023-11-21T09:38:02;23.85;;;12.48;;
50906;SDS011;36882;27.680;85.304;2023-11-21T09:40:34;21.48;;;11.77;;
50906;SDS011;36882;27.680;85.304;2023-11-21T09:43:07;26.73;;;13.10;;
50906;SDS011;36882;27.680;85.304;2023-11-21T09:45:54;27.70;;;12.60;;
50906;SDS011;36882;27.680;85.304;2023-11-21T09:48:26;22.20;;;12.13;;
50906;SDS011;36882;27.680;85.304;2023-11-21T09:50:58;18.15;;;11.70;;
50906;SDS011;36882;27.680;85.304;2023-11-21T09:53:32;15.75;;;10.63;;
50906;SDS011;36882;27.680;85.304;2023-11-21T09:56:04;16.65;;;11.35;;
50906;SDS011;36882;27.680;85.304;2023-11-21T09:58:37;24.00;;;12.63;;
50906;SDS011;36882;27.680;85.304;2023-11-21T10:01:08;55.78;;;38.80;;
50906;SDS011;36882;27.680;85.304;2023-11-21T10:03:44;61.65;;;39.33;;
50906;SDS011;36882;27.680;85.304;2023-11-21T10:06:20;56.55;;;36.80;;
50906;SDS011;36882;27.680;85.304;2023-11-21T10:08:55;56.60;;;30.80;;
50906;SDS011;36882;27.680;85.304;2023-11-21T10:11:25;58.63;;;29.08;;
50906;SDS011;36882;27.680;85.304;2023-11-21T10:13:59;53.97;;;31.50;;
50906;SDS011;36882;27.680;85.304;2023-11-21T10:16:31;77.18;;;38.15;;
50906;SDS011;36882;27.680;85.304;2023-11-21T10:19:01;65.25;;;33.80;;
50906;SDS011;36882;27.680;85.304;2023-11-21T10:21:38;45.55;;;25.15;;
50906;SDS011;36882;27.680;85.304;2023-11-21T10:24:08;55.97;;;29.25;;
50906;SDS011;36882;27.680;85.304;2023-11-21T10:26:41;35.58;;;17.85;;
50906;SDS011;36882;27.680;85.304;2023-11-21T10:29:19;31.90;;;18.88;;
50906;SDS011;36882;27.680;85.304;2023-11-21T10:31:50;47.20;;;24.60;;
50906;SDS011;36882;27.680;85.304;2023-11-21T10:34:26;35.53;;;17.30;;
50906;SDS011;36882;27.680;85.304;2023-11-21T10:36:57;33.80;;;19.55;;
50906;SDS011;36882;27.680;85.304;2023-11-21T10:39:28;34.88;;;19.33;;
50906;SDS011;36882;27.680;85.304;2023-11-21T10:41:59;43.53;;;17.80;;
50906;SDS011;36882;27.680;85.304;2023-11-21T10:44:31;31.60;;;17.00;;
50906;SDS011;36882;27.680;85.304;2023-11-21T10:47:08;27.15;;;16.60;;
50906;SDS011;36882;27.680;85.304;2023-11-21T10:49:41;31.30;;;17.95;;
50906;SDS011;36882;27.680;85.304;2023-11-21T10:52:12;30.95;;;17.33;;
50906;SDS011;36882;27.680;85.304;2023-11-21T10:54:46;32.30;;;18.10;;
50906;SDS011;36882;27.680;85.304;2023-11-21T10:57:26;36.00;;;18.10;;
50906;SDS011;36882;27.680;85.304;2023-11-21T11:00:00;38.97;;;20.75;;
50906;SDS011;36882;27.680;85.304;2023-11-21T11:02:33;36.45;;;20.33;;
50906;SDS011;36882;27.680;85.304;2023-11-21T11:05:08;34.78;;;21.30;;
50906;SDS011;36882;27.680;85.304;2023-11-21T11:07:48;36.55;;;20.02;;
50906;SDS011;36882;27.680;85.304;2023-11-21T11:10:30;44.72;;;22.77;;
50906;SDS011;36882;27.680;85.304;2023-11-21T11:13:00;46.72;;;25.27;;
50906;SDS011;36882;27.680;85.304;2023-11-21T11:15:32;52.38;;;24.88;;
50906;SDS011;36882;27.680;85.304;2023-11-21T11:18:03;48.97;;;26.25;;
50906;SDS011;36882;27.680;85.304;2023-11-21T11:20:36;48.88;;;23.77;;
50906;SDS011;36882;27.680;85.304;2023-11-21T11:28:51;48.28;;;26.85;;
50906;SDS011;36882;27.680;85.304;2023-11-21T11:36:48;52.58;;;28.75;;
50906;SDS011;36882;27.680;85.304;2023-11-21T11:39:40;55.58;;;28.70;;
50906;SDS011;36882;27.680;85.304;2023-11-21T11:42:12;52.85;;;26.65;;
50906;SDS011;36882;27.680;85.304;2023-11-21T11:47:25;45.78;;;29.23;;
50906;SDS011;36882;27.680;85.304;2023-11-21T11:50:08;47.03;;;27.67;;
50906;SDS011;36882;27.680;85.304;2023-11-21T11:52:46;45.05;;;28.25;;
50906;SDS011;36882;27.680;85.304;2023-11-21T11:55:24;46.60;;;29.02;;
50906;SDS011;36882;27.680;85.304;2023-11-21T11:58:01;46.22;;;28.55;;
50906;SDS011;36882;27.680;85.304;2023-11-21T12:00:35;42.53;;;25.42;;
50906;SDS011;36882;27.680;85.304;2023-11-21T12:03:08;44.35;;;26.48;;
50906;SDS011;36882;27.680;85.304;2023-11-21T12:05:39;46.03;;;27.95;;
50906;SDS011;36882;27.680;85.304;2023-11-21T12:08:14;44.47;;;24.35;;
50906;SDS011;36882;27.680;85.304;2023-11-21T12:10:48;53.17;;;25.48;;
50906;SDS011;36882;27.680;85.304;2023-11-21T12:13:23;42.72;;;25.63;;
50906;SDS011;36882;27.680;85.304;2023-11-21T12:15:54;50.15;;;28.30;;
50906;SDS011;36882;27.680;85.304;2023-11-21T12:18:24;56.17;;;31.52;;
50906;SDS011;36882;27.680;85.304;2023-11-21T12:20:55;53.10;;;30.08;;
50906;SDS011;36882;27.680;85.304;2023-11-21T12:23:26;54.72;;;30.88;;
50906;SDS011;36882;27.680;85.304;2023-11-21T12:25:56;50.03;;;29.77;;
50906;SDS011;36882;27.680;85.304;2023-11-21T12:28:27;47.55;;;28.00;;
50906;SDS011;36882;27.680;85.304;2023-11-21T12:30:57;50.80;;;27.77;;
50906;SDS011;36882;27.680;85.304;2023-11-21T12:33:44;50.42;;;28.00;;
50906;SDS011;36882;27.680;85.304;2023-11-21T12:36:15;47.80;;;30.15;;
50906;SDS011;36882;27.680;85.304;2023-11-21T12:38:46;43.88;;;28.30;;
50906;SDS011;36882;27.680;85.304;2023-11-21T12:41:16;50.15;;;26.35;;
50906;SDS011;36882;27.680;85.304;2023-11-21T12:43:47;51.83;;;28.88;;
50906;SDS011;36882;27.680;85.304;2023-11-21T12:46:18;40.10;;;27.98;;
50906;SDS011;36882;27.680;85.304;2023-11-21T12:48:49;59.85;;;32.00;;
50906;SDS011;36882;27.680;85.304;2023-11-21T12:51:20;50.30;;;30.17;;
50906;SDS011;36882;27.680;85.304;2023-11-21T12:53:51;55.75;;;34.65;;
50906;SDS011;36882;27.680;85.304;2023-11-21T12:56:22;47.47;;;31.45;;
50906;SDS011;36882;27.680;85.304;2023-11-21T12:58:53;44.05;;;32.83;;
50906;SDS011;36882;27.680;85.304;2023-11-21T13:01:26;57.85;;;32.25;;
50906;SDS011;36882;27.680;85.304;2023-11-21T13:03:58;45.45;;;30.02;;
50906;SDS011;36882;27.680;85.304;2023-11-21T13:06:29;60.83;;;34.88;;
50906;SDS011;36882;27.680;85.304;2023-11-21T13:09:07;59.28;;;34.60;;
50906;SDS011;36882;27.680;85.304;2023-11-21T13:11:45;60.65;;;36.35;;
50906;SDS011;36882;27.680;85.304;2023-11-21T13:14:16;61.28;;;37.70;;
50906;SDS011;36882;27.680;85.304;2023-11-21T13:16:48;56.95;;;33.35;;
50906;SDS011;36882;27.680;85.304;2023-11-21T13:19:19;60.22;;;34.83;;
50906;SDS011;36882;27.680;85.304;2023-11-21T13:21:51;60.92;;;32.15;;
50906;SDS011;36882;27.680;85.304;2023-11-21T13:24:23;55.38;;;32.80;;
50906;SDS011;36882;27.680;85.304;2023-11-21T13:26:55;50.10;;;34.03;;
50906;SDS011;36882;27.680;85.304;2023-11-21T13:29:26;55.25;;;33.97;;
50906;SDS011;36882;27.680;85.304;2023-11-21T13:32:00;69.65;;;37.80;;
50906;SDS011;36882;27.680;85.304;2023-11-21T13:34:33;65.93;;;40.47;;
50906;SDS011;36882;27.680;85.304;2023-11-21T13:37:05;65.95;;;42.42;;
50906;SDS011;36882;27.680;85.304;2023-11-21T13:39:36;70.22;;;44.33;;
50906;SDS011;36882;27.680;85.304;2023-11-21T13:42:14;65.90;;;40.28;;
50906;SDS011;36882;27.680;85.304;2023-11-21T13:44:45;68.38;;;39.78;;
50906;SDS011;36882;27.680;85.304;2023-11-21T13:47:17;69.57;;;39.65;;
50906;SDS011;36882;27.680;85.304;2023-11-21T13:49:48;65.38;;;38.50;;
50906;SDS011;36882;27.680;85.304;2023-11-21T13:54:53;56.17;;;35.63;;
50906;SDS011;36882;27.680;85.304;2023-11-21T13:57:25;57.47;;;35.92;;
50906;SDS011;36882;27.680;85.304;2023-11-21T13:59:57;51.47;;;36.53;;
50906;SDS011;36882;27.680;85.304;2023-11-21T14:02:28;56.70;;;33.78;;
50906;SDS011;36882;27.680;85.304;2023-11-21T14:05:06;57.42;;;35.80;;
50906;SDS011;36882;27.680;85.304;2023-11-21T14:07:38;62.92;;;37.38;;
50906;SDS011;36882;27.680;85.304;2023-11-21T14:10:16;61.13;;;34.80;;
50906;SDS011;36882;27.680;85.304;2023-11-21T14:12:50;49.72;;;33.80;;
50906;SDS011;36882;27.680;85.304;2023-11-21T14:15:21;61.70;;;34.72;;
50906;SDS011;36882;27.680;85.304;2023-11-21T14:20:21;50.15;;;32.30;;
50906;SDS011;36882;27.680;85.304;2023-11-21T14:22:52;48.38;;;34.17;;
50906;SDS011;36882;27.680;85.304;2023-11-21T14:25:23;52.85;;;32.13;;
50906;SDS011;36882;27.680;85.304;2023-11-21T14:27:54;52.08;;;33.00;;
50906;SDS011;36882;27.680;85.304;2023-11-21T14:30:26;53.53;;;35.33;;
50906;SDS011;36882;27.680;85.304;2023-11-21T14:33:49;51.63;;;32.65;;
50906;SDS011;36882;27.680;85.304;2023-11-21T14:36:45;53.10;;;33.30;;
50906;SDS011;36882;27.680;85.304;2023-11-21T14:39:16;54.25;;;33.95;;
50906;SDS011;36882;27.680;85.304;2023-11-21T14:42:00;57.80;;;36.28;;
50906;SDS011;36882;27.680;85.304;2023-11-21T14:44:31;63.03;;;38.15;;
50906;SDS011;36882;27.680;85.304;2023-11-21T14:47:07;62.25;;;37.10;;
50906;SDS011;36882;27.680;85.304;2023-11-21T14:49:54;52.67;;;35.78;;
50906;SDS011;36882;27.680;85.304;2023-11-21T14:52:28;62.53;;;38.08;;
50906;SDS011;36882;27.680;85.304;2023-11-21T14:55:03;60.72;;;36.33;;
50906;SDS011;36882;27.680;85.304;2023-11-21T14:57:54;54.40;;;33.90;;
50906;SDS011;36882;27.680;85.304;2023-11-21T15:00:24;61.35;;;37.17;;
50906;SDS011;36882;27.680;85.304;2023-11-21T15:03:04;61.80;;;38.78;;
50906;SDS011;36882;27.680;85.304;2023-11-21T15:05:36;65.90;;;39.65;;
50906;SDS011;36882;27.680;85.304;2023-11-21T15:08:08;62.25;;;35.75;;
50906;SDS011;36882;27.680;85.304;2023-11-21T15:10:56;59.90;;;37.40;;
50906;SDS011;36882;27.680;85.304;2023-11-21T15:13:27;59.63;;;40.60;;
50906;SDS011;36882;27.680;85.304;2023-11-21T15:15:58;62.80;;;36.22;;
50906;SDS011;36882;27.680;85.304;2023-11-21T15:18:36;55.45;;;35.47;;
50906;SDS011;36882;27.680;85.304;2023-11-21T15:21:07;52.90;;;34.72;;
50906;SDS011;36882;27.680;85.304;2023-11-21T15:23:40;53.08;;;34.58;;
50906;SDS011;36882;27.680;85.304;2023-11-21T15:28:40;54.63;;;35.00;;
50906;SDS011;36882;27.680;85.304;2023-11-21T15:31:11;54.50;;;34.78;;
50906;SDS011;36882;27.680;85.304;2023-11-21T15:33:45;52.40;;;36.22;;
50906;SDS011;36882;27.680;85.304;2023-11-21T15:36:16;56.13;;;32.80;;
50906;SDS011;36882;27.680;85.304;2023-11-21T15:38:46;50.03;;;31.17;;
50906;SDS011;36882;27.680;85.304;2023-11-21T15:41:17;60.85;;;35.83;;